createdAt,value
2023-06-13T00:00:12.071Z,29.39
2023-06-13T00:02:39.871Z,29.55
2023-06-13T00:05:22.563Z,29.48
2023-06-13T00:07:50.991Z,28.93
2023-06-13T00:10:18.612Z,29.25
2023-06-13T00:12:50.740Z,29.06
2023-06-13T00:15:19.483Z,29.18
2023-06-13T00:17:49.744Z,29.80
2023-06-13T00:20:17.610Z,28.69
2023-06-13T00:22:46.509Z,29.10
2023-06-13T00:25:14.139Z,29.17
2023-06-13T00:27:41.661Z,28.89
2023-06-13T00:30:09.778Z,29.22
2023-06-13T00:32:37.330Z,29.01
2023-06-13T00:35:05.948Z,29.19
2023-06-13T00:37:35.801Z,28.90
2023-06-13T00:40:03.972Z,28.74
2023-06-13T00:42:33.292Z,28.70
2023-06-13T00:45:29.314Z,29.03
2023-06-13T00:48:06.363Z,28.98
2023-06-13T00:50:44.591Z,29.43
2023-06-13T00:53:19.681Z,29.76
2023-06-13T00:55:48.842Z,29.53
2023-06-13T00:58:18.170Z,29.30
2023-06-13T01:00:46.891Z,29.46
2023-06-13T01:03:17.736Z,29.31
2023-06-13T01:05:48.168Z,29.77
2023-06-13T01:08:28.437Z,29.71
2023-06-13T01:11:22.395Z,29.62
2023-06-13T01:14:15.771Z,29.52
2023-06-13T01:17:04.635Z,29.34
2023-06-13T01:19:44.675Z,29.41
2023-06-13T01:22:24.765Z,29.72
2023-06-13T01:25:38.635Z,29.61
2023-06-13T01:28:09.314Z,29.68
2023-06-13T01:30:37.273Z,29.76
2023-06-13T01:33:06.112Z,30.42
2023-06-13T01:35:33.899Z,30.41
2023-06-13T01:38:01.856Z,30.32
2023-06-13T01:40:29.363Z,31.15
2023-06-13T01:42:56.878Z,31.06
2023-06-13T01:45:25.888Z,32.13
2023-06-13T01:48:30.667Z,32.22
2023-06-13T01:51:25.933Z,31.93
2023-06-13T01:54:00.225Z,32.31
2023-06-13T01:56:33.053Z,32.80
2023-06-13T01:59:09.024Z,33.14
2023-06-13T02:01:40.374Z,33.57
2023-06-13T02:04:08.224Z,33.68
2023-06-13T02:06:36.643Z,34.58
2023-06-13T02:09:05.100Z,35.45
2023-06-13T02:11:32.724Z,35.63
2023-06-13T02:14:00.188Z,35.21
2023-06-13T02:16:31.160Z,35.72
2023-06-13T02:19:01.318Z,35.92
2023-06-13T02:21:31.374Z,35.92
2023-06-13T02:24:00.060Z,36.62
2023-06-13T02:26:30.459Z,36.84
2023-06-13T02:28:59.381Z,37.24
2023-06-13T02:31:27.817Z,37.52
2023-06-13T02:33:55.475Z,37.06
2023-06-13T02:36:22.961Z,37.45
2023-06-13T02:38:50.478Z,37.66
2023-06-13T02:41:17.942Z,37.55
2023-06-13T02:43:45.533Z,37.02
2023-06-13T02:46:13.072Z,37.62
2023-06-13T02:48:41.520Z,38.48
2023-06-13T02:51:08.996Z,37.62
2023-06-13T02:53:36.650Z,37.41
2023-06-13T02:56:04.483Z,37.62
2023-06-13T02:58:31.994Z,38.37
2023-06-13T03:00:59.482Z,38.43
2023-06-13T03:03:27.103Z,39.21
2023-06-13T03:05:57.587Z,39.88
2023-06-13T03:08:26.410Z,39.15
2023-06-13T03:10:54.532Z,40.42
2023-06-13T03:13:22.189Z,39.49
2023-06-13T03:15:49.685Z,40.40
2023-06-13T03:18:17.568Z,40.80
2023-06-13T03:20:47.514Z,40.64
2023-06-13T03:23:16.826Z,40.76
2023-06-13T03:25:47.042Z,40.85
2023-06-13T03:28:14.652Z,40.97
2023-06-13T03:30:42.170Z,40.18
2023-06-13T03:33:11.294Z,40.07
2023-06-13T03:35:39.617Z,40.56
2023-06-13T03:38:07.427Z,41.45
2023-06-13T03:40:35.021Z,41.37
2023-06-13T03:43:02.644Z,41.92
2023-06-13T03:45:30.383Z,41.49
2023-06-13T03:47:57.979Z,41.74
2023-06-13T03:50:25.553Z,42.13
2023-06-13T03:52:53.118Z,42.61
2023-06-13T04:16:53.666Z,42.24
2023-06-13T04:19:21.904Z,38.11
2023-06-13T04:21:49.809Z,40.91
2023-06-13T04:24:17.868Z,42.37
2023-06-13T04:26:48.987Z,42.07
2023-06-13T04:29:20.239Z,38.94
2023-06-13T04:31:48.065Z,38.73
2023-06-13T04:34:15.954Z,37.11
2023-06-13T04:36:45.599Z,37.21
2023-06-13T04:39:13.644Z,36.93
2023-06-13T04:41:44.905Z,36.98
2023-06-13T04:44:14.689Z,36.06
2023-06-13T04:46:42.610Z,36.14
2023-06-13T04:49:10.602Z,35.95
2023-06-13T04:51:39.161Z,35.76
2023-06-13T04:54:10.554Z,35.67
2023-06-13T04:56:41.541Z,35.49
2023-06-13T04:59:09.843Z,35.14
2023-06-13T05:01:39.076Z,35.48
2023-06-13T05:04:07.217Z,35.55
2023-06-13T05:06:39.192Z,34.85
2023-06-13T05:09:09.793Z,34.99
2023-06-13T05:11:37.268Z,34.73
2023-06-13T05:14:04.818Z,35.02
2023-06-13T05:16:33.192Z,34.80
2023-06-13T05:19:01.564Z,34.56
2023-06-13T05:21:30.634Z,34.35
2023-06-13T05:23:59.880Z,34.14
2023-06-13T05:26:29.285Z,34.42
2023-06-13T05:28:58.817Z,34.27
2023-06-13T05:31:26.428Z,33.96
2023-06-13T05:33:53.929Z,34.05
2023-06-13T05:36:21.424Z,33.96
2023-06-13T05:38:48.929Z,33.86
2023-06-13T05:41:16.389Z,33.89
2023-06-13T05:43:43.881Z,33.99
2023-06-13T05:46:11.605Z,33.99
2023-06-13T05:48:39.099Z,33.90
2023-06-13T05:51:06.717Z,33.87
2023-06-13T05:53:34.205Z,33.59
2023-06-13T05:56:01.928Z,33.44
2023-06-13T05:58:29.629Z,33.34
2023-06-13T06:00:59.093Z,33.38
2023-06-13T06:03:26.978Z,33.20
2023-06-13T06:05:54.496Z,33.88
2023-06-13T06:08:22.115Z,33.59
2023-06-13T06:10:50.189Z,33.19
2023-06-13T06:13:17.706Z,33.03
2023-06-13T06:15:45.183Z,33.96
2023-06-13T06:18:13.275Z,33.47
2023-06-13T06:20:40.867Z,33.62
2023-06-13T06:23:08.390Z,33.12
2023-06-13T06:25:36.445Z,32.69
2023-06-13T06:28:04.026Z,32.57
2023-06-13T06:30:31.905Z,33.03
2023-06-13T06:32:59.616Z,32.41
2023-06-13T06:35:27.201Z,32.62
2023-06-13T06:37:54.706Z,33.03
2023-06-13T06:40:23.136Z,33.47
2023-06-13T06:42:50.614Z,32.58
2023-06-13T06:45:18.058Z,32.64
2023-06-13T06:47:45.800Z,32.58
2023-06-13T06:50:13.511Z,32.70
2023-06-13T06:52:41.335Z,32.95
2023-06-13T06:55:08.912Z,31.16
2023-06-13T06:57:36.856Z,31.10
2023-06-13T07:00:05.679Z,31.34
2023-06-13T07:02:33.749Z,30.81
2023-06-13T07:05:01.694Z,30.54
2023-06-13T07:07:29.337Z,30.75
2023-06-13T07:09:57.079Z,31.92
2023-06-13T07:12:24.612Z,31.16
2023-06-13T07:14:52.116Z,30.29
2023-06-13T07:17:19.729Z,30.57
2023-06-13T07:19:47.230Z,30.29
2023-06-13T07:22:14.697Z,30.16
2023-06-13T07:24:42.649Z,29.81
2023-06-13T07:27:10.152Z,29.89
2023-06-13T07:29:37.925Z,30.32
2023-06-13T07:32:07.006Z,30.23
2023-06-13T07:34:59.242Z,29.39
2023-06-13T07:37:22.627Z,29.77
2023-06-13T07:39:51.095Z,29.90
2023-06-13T07:42:18.571Z,30.13
2023-06-13T07:44:46.201Z,29.26
2023-06-13T07:47:13.822Z,29.38
2023-06-13T07:49:41.356Z,29.09
2023-06-13T07:52:09.799Z,29.59
2023-06-13T07:54:37.996Z,29.87
2023-06-13T07:57:19.310Z,30.09
2023-06-13T07:59:56.663Z,28.68
2023-06-13T08:02:27.837Z,29.10
2023-06-13T08:04:56.294Z,28.85
2023-06-13T08:07:24.215Z,29.42
2023-06-13T08:09:51.830Z,30.18
2023-06-13T08:12:19.316Z,29.92
2023-06-13T08:14:46.807Z,28.90
2023-06-13T08:17:14.311Z,28.82
2023-06-13T08:19:41.778Z,29.22
2023-06-13T08:22:09.382Z,29.79
2023-06-13T08:24:36.899Z,28.99
2023-06-13T08:27:05.047Z,28.89
2023-06-13T08:29:32.570Z,29.35
2023-06-13T08:32:00.889Z,29.06
2023-06-13T08:34:28.548Z,28.31
2023-06-13T08:36:56.220Z,28.52
2023-06-13T08:39:24.020Z,28.65
2023-06-13T08:41:52.103Z,28.11
2023-06-13T08:44:20.090Z,28.26
2023-06-13T08:46:47.794Z,28.65
2023-06-13T08:49:15.497Z,29.18
2023-06-13T08:51:46.681Z,29.48
2023-06-13T08:54:16.375Z,29.93
2023-06-13T08:56:46.775Z,29.30
2023-06-13T08:59:23.951Z,28.86
2023-06-13T09:01:52.097Z,28.55
2023-06-13T09:04:20.171Z,28.86
2023-06-13T09:06:49.655Z,27.76
2023-06-13T09:09:17.823Z,29.12
2023-06-13T09:11:50.957Z,29.52
2023-06-13T09:14:21.059Z,27.84
2023-06-13T09:16:55.578Z,28.01
2023-06-13T09:19:23.357Z,28.96
2023-06-13T09:21:51.632Z,27.89
2023-06-13T09:24:19.544Z,27.83
2023-06-13T09:26:47.268Z,27.59
2023-06-13T09:31:45.197Z,29.47
2023-06-13T09:34:18.814Z,29.98
2023-06-13T09:36:46.916Z,29.85
2023-06-13T09:39:14.499Z,29.84
2023-06-13T09:41:42.807Z,28.26
2023-06-13T09:44:11.224Z,29.99
2023-06-13T09:46:38.861Z,29.06
2023-06-13T09:49:07.570Z,28.12
2023-06-13T09:51:35.100Z,29.22
2023-06-13T09:54:03.849Z,28.74
2023-06-13T09:56:31.384Z,29.48
2023-06-13T09:58:58.873Z,29.10
2023-06-13T10:01:27.030Z,28.46
2023-06-13T10:03:54.534Z,28.91
2023-06-13T10:06:22.028Z,26.82
2023-06-13T10:08:49.584Z,28.36
2023-06-13T10:11:28.829Z,29.29
2023-06-13T10:14:13.283Z,28.34
2023-06-13T10:17:03.607Z,28.48
2023-06-13T10:19:42.667Z,28.88
2023-06-13T10:22:12.165Z,28.79
2023-06-13T10:24:41.339Z,28.80
2023-06-13T10:27:11.462Z,28.87
2023-06-13T10:30:24.959Z,29.09
2023-06-13T10:33:19.528Z,29.58
2023-06-13T10:37:03.882Z,27.92
2023-06-13T10:40:31.892Z,29.29
2023-06-13T10:43:39.679Z,27.64
2023-06-13T10:46:10.131Z,26.82
2023-06-13T10:48:50.910Z,27.55
2023-06-13T10:51:30.309Z,27.45
2023-06-13T10:54:03.680Z,26.80
2023-06-13T10:56:40.553Z,26.96
2023-06-13T10:59:31.487Z,26.91
2023-06-13T11:01:58.987Z,27.20
2023-06-13T11:04:30.878Z,26.68
2023-06-13T11:07:27.696Z,26.57
2023-06-13T11:10:17.673Z,26.20
2023-06-13T11:12:46.417Z,26.78
2023-06-13T11:15:29.843Z,26.80
2023-06-13T11:18:23.433Z,26.66
2023-06-13T11:20:59.779Z,26.00
2023-06-13T11:23:55.117Z,25.70
2023-06-13T11:26:23.021Z,26.19
2023-06-13T11:28:54.418Z,25.49
2023-06-13T11:31:22.812Z,25.09
2023-06-13T11:33:55.190Z,25.81
2023-06-13T11:36:29.483Z,25.75
2023-06-13T11:39:10.260Z,26.23
2023-06-13T11:41:38.728Z,25.13
2023-06-13T11:44:07.015Z,25.53
2023-06-13T11:46:35.471Z,25.66
2023-06-13T11:49:03.100Z,25.37
2023-06-13T11:51:32.182Z,25.26
2023-06-13T11:54:02.639Z,24.86
2023-06-13T11:56:35.924Z,25.06
2023-06-13T11:59:26.817Z,24.69
2023-06-13T12:01:56.379Z,25.48
2023-06-13T12:04:27.357Z,24.62
2023-06-13T12:06:55.551Z,25.29
2023-06-13T12:09:23.451Z,24.04
2023-06-13T12:11:53.215Z,23.53
2023-06-13T12:14:22.031Z,23.98
2023-06-13T12:16:55.256Z,23.88
2023-06-13T12:19:24.547Z,23.49
2023-06-13T12:22:00.374Z,23.97
2023-06-13T12:24:28.643Z,23.38
2023-06-13T12:26:56.576Z,23.83
2023-06-13T12:29:29.460Z,24.09
2023-06-13T12:32:04.874Z,23.25
2023-06-13T12:34:34.406Z,23.86
2023-06-13T12:37:06.371Z,22.49
2023-06-13T12:39:35.631Z,22.53
2023-06-13T12:42:11.727Z,21.60
2023-06-13T12:44:39.231Z,22.00
2023-06-13T12:47:08.471Z,21.85
2023-06-13T12:49:41.295Z,22.27
2023-06-13T12:52:17.324Z,21.17
2023-06-13T12:54:45.264Z,21.47
2023-06-13T12:57:17.170Z,21.50
2023-06-13T12:59:52.651Z,20.83
2023-06-13T13:02:28.418Z,20.38
2023-06-13T13:05:01.995Z,21.08
2023-06-13T13:07:31.313Z,19.99
2023-06-13T13:10:00.783Z,19.97
2023-06-13T13:12:28.719Z,20.31
2023-06-13T13:14:56.181Z,20.09
2023-06-13T13:17:24.019Z,19.97
2023-06-13T13:19:54.571Z,20.24
2023-06-13T13:22:22.938Z,19.91
2023-06-13T13:24:50.686Z,19.64
2023-06-13T13:27:18.241Z,19.80
2023-06-13T13:29:47.070Z,19.92
2023-06-13T13:32:14.589Z,20.11
2023-06-13T13:34:42.244Z,18.93
2023-06-13T13:37:09.781Z,19.55
2023-06-13T13:39:37.280Z,19.94
2023-06-13T13:42:14.204Z,18.58
2023-06-13T13:44:53.543Z,19.25
2023-06-13T13:47:21.178Z,18.44
2023-06-13T13:49:48.654Z,18.44
2023-06-13T13:52:16.207Z,18.06
2023-06-13T13:54:43.982Z,17.81
2023-06-13T13:57:11.827Z,18.35
2023-06-13T13:59:39.483Z,17.69
2023-06-13T14:02:07.317Z,18.21
2023-06-13T14:04:35.084Z,17.74
2023-06-13T14:07:02.659Z,17.98
2023-06-13T14:09:30.133Z,17.73
2023-06-13T14:11:57.642Z,17.63
2023-06-13T14:14:25.720Z,17.20
2023-06-13T14:16:53.761Z,17.33
2023-06-13T14:19:21.836Z,17.42
2023-06-13T14:21:49.897Z,16.77
2023-06-13T14:24:17.840Z,17.20
2023-06-13T14:26:45.436Z,17.67
2023-06-13T14:29:12.892Z,17.26
2023-06-13T14:31:40.471Z,15.97
2023-06-13T14:34:08.050Z,16.84
2023-06-13T14:36:35.645Z,15.61
2023-06-13T14:39:06.673Z,14.84
2023-06-13T14:41:34.281Z,15.07
2023-06-13T14:44:01.933Z,15.39
2023-06-13T14:46:29.881Z,14.83
2023-06-13T14:48:57.350Z,14.87
2023-06-13T14:51:24.833Z,14.89
2023-06-13T14:53:52.368Z,14.21
2023-06-13T14:56:19.836Z,14.61
2023-06-13T14:58:47.334Z,14.13
2023-06-13T15:01:15.108Z,13.84
2023-06-13T15:03:47.356Z,14.23
2023-06-13T15:06:15.021Z,13.72
2023-06-13T15:08:42.501Z,14.06
2023-06-13T15:11:11.695Z,13.62
2023-06-13T15:13:39.830Z,13.81
2023-06-13T15:16:10.382Z,12.10
2023-06-13T15:18:38.124Z,12.70
2023-06-13T15:21:06.689Z,12.07
2023-06-13T15:23:34.463Z,12.49
2023-06-13T15:26:02.065Z,12.27
2023-06-13T15:28:30.174Z,11.77
2023-06-13T15:30:58.090Z,11.93
2023-06-13T15:33:31.562Z,12.04
2023-06-13T15:36:00.282Z,11.88
2023-06-13T15:38:27.802Z,11.72
2023-06-13T15:40:55.539Z,12.16
2023-06-13T15:43:23.026Z,11.71
2023-06-13T15:45:50.838Z,11.43
2023-06-13T15:48:18.315Z,12.79
2023-06-13T15:50:46.084Z,12.48
2023-06-13T15:53:13.973Z,12.30
2023-06-13T15:55:43.241Z,12.10
2023-06-13T15:58:12.206Z,12.49
2023-06-13T16:00:41.791Z,12.08
2023-06-13T16:03:10.327Z,11.81
2023-06-13T16:05:38.190Z,12.16
2023-06-13T16:08:06.145Z,12.83
2023-06-13T16:10:33.657Z,12.26
2023-06-13T16:13:01.245Z,11.76
2023-06-13T16:15:29.877Z,12.32
2023-06-13T16:17:57.518Z,11.72
2023-06-13T16:20:25.105Z,10.78
2023-06-13T16:22:52.744Z,11.28
2023-06-13T16:25:20.466Z,11.19
2023-06-13T16:27:48.085Z,10.84
2023-06-13T16:30:15.684Z,11.14
2023-06-13T16:32:44.149Z,10.48
2023-06-13T16:35:11.849Z,10.85
2023-06-13T16:37:40.863Z,10.01
2023-06-13T16:40:09.236Z,9.79
2023-06-13T16:42:37.749Z,10.12
2023-06-13T16:45:06.454Z,10.26
2023-06-13T16:47:34.142Z,9.70
2023-06-13T16:50:01.726Z,9.67
2023-06-13T16:52:32.422Z,9.55
2023-06-13T16:55:00.402Z,9.31
2023-06-13T16:57:27.908Z,9.67
2023-06-13T16:59:55.589Z,10.08
2023-06-13T17:02:23.326Z,10.25
2023-06-13T17:04:50.813Z,9.82
2023-06-13T17:07:18.268Z,9.35
2023-06-13T17:09:45.836Z,8.59
2023-06-13T17:12:14.213Z,8.28
2023-06-13T17:14:42.052Z,8.55
2023-06-13T17:17:09.667Z,8.72
2023-06-13T17:19:37.384Z,8.89
2023-06-13T17:22:05.227Z,8.78
2023-06-13T17:24:33.651Z,8.79
2023-06-13T17:27:02.460Z,8.84
2023-06-13T17:29:30.646Z,9.38
2023-06-13T17:31:58.951Z,9.37
2023-06-13T17:34:27.198Z,8.98
2023-06-13T17:36:55.957Z,8.88
2023-06-13T17:39:23.720Z,8.69
2023-06-13T17:41:52.240Z,8.81
2023-06-13T17:44:19.742Z,8.70
2023-06-13T17:46:47.303Z,8.34
2023-06-13T17:49:14.883Z,7.93
2023-06-13T17:51:42.414Z,7.87
2023-06-13T17:54:10.875Z,7.79
2023-06-13T17:56:39.265Z,8.18
2023-06-13T17:59:07.587Z,8.32
2023-06-13T18:01:35.681Z,8.61
2023-06-13T18:04:03.401Z,8.55
2023-06-13T18:06:30.916Z,8.98
2023-06-13T18:08:58.816Z,8.56
2023-06-13T18:11:26.678Z,8.87
2023-06-13T18:13:56.612Z,9.15
2023-06-13T18:16:24.273Z,9.29
2023-06-13T18:18:51.819Z,9.63
2023-06-13T18:21:19.286Z,10.02
2023-06-13T18:23:46.911Z,9.95
2023-06-13T18:26:14.528Z,10.83
2023-06-13T18:28:42.161Z,10.46
2023-06-13T18:31:09.944Z,10.65
2023-06-13T18:33:38.388Z,11.30
2023-06-13T18:36:06.005Z,11.47
2023-06-13T18:38:35.548Z,11.41
2023-06-13T18:41:03.173Z,11.75
2023-06-13T18:43:30.791Z,11.66
2023-06-13T18:45:58.390Z,11.85
2023-06-13T18:48:26.385Z,11.76
2023-06-13T18:50:53.996Z,11.91
2023-06-13T18:53:21.657Z,12.01
2023-06-13T18:55:49.733Z,11.81
2023-06-13T18:58:17.416Z,12.07
2023-06-13T19:00:46.224Z,11.95
2023-06-13T19:03:14.815Z,11.80
2023-06-13T19:05:42.958Z,12.08
2023-06-13T19:08:10.586Z,12.17
2023-06-13T19:10:38.194Z,12.30
2023-06-13T19:13:05.819Z,12.12
2023-06-13T19:15:33.727Z,13.24
2023-06-13T19:18:01.720Z,12.49
2023-06-13T19:20:29.409Z,16.15
2023-06-13T19:22:56.980Z,12.65
2023-06-13T19:25:26.611Z,14.48
2023-06-13T19:28:10.013Z,13.24
2023-06-13T19:30:44.669Z,12.77
2023-06-13T19:33:12.276Z,12.87
2023-06-13T19:35:41.522Z,12.92
2023-06-13T19:38:09.118Z,14.44
2023-06-13T19:40:36.831Z,13.63
2023-06-13T19:43:04.378Z,13.36
2023-06-13T19:45:32.455Z,13.24
2023-06-13T19:48:09.569Z,13.36
2023-06-13T19:50:37.333Z,13.46
2023-06-13T19:53:06.358Z,12.98
2023-06-13T19:55:34.892Z,13.37
2023-06-13T19:58:03.190Z,13.73
2023-06-13T20:00:31.583Z,13.66
2023-06-13T20:02:59.449Z,13.84
2023-06-13T20:05:27.096Z,14.29
2023-06-13T20:07:54.582Z,14.74
2023-06-13T20:10:22.183Z,13.81
2023-06-13T20:12:49.778Z,13.97
2023-06-13T20:15:17.720Z,13.68
2023-06-13T20:17:47.232Z,14.03
2023-06-13T20:20:15.096Z,14.31
2023-06-13T20:22:45.633Z,14.60
2023-06-13T20:25:13.843Z,14.48
2023-06-13T20:27:41.970Z,15.21
2023-06-13T20:30:10.992Z,15.96
2023-06-13T20:32:38.538Z,15.08
2023-06-13T20:35:08.182Z,15.26
2023-06-13T20:37:36.064Z,16.13
2023-06-13T20:40:05.605Z,15.51
2023-06-13T20:42:34.564Z,16.74
2023-06-13T20:45:09.537Z,15.66
2023-06-13T20:47:39.259Z,15.71
2023-06-13T20:50:12.957Z,16.03
2023-06-13T20:52:40.520Z,15.97
2023-06-13T20:55:09.305Z,16.09
2023-06-13T20:57:38.267Z,16.18
2023-06-13T21:00:23.211Z,16.51
2023-06-13T21:02:54.394Z,16.77
2023-06-13T21:05:27.118Z,16.90
2023-06-13T21:07:59.430Z,17.01
2023-06-13T21:10:29.744Z,17.07
2023-06-13T21:12:57.859Z,17.35
2023-06-13T21:15:27.009Z,17.61
2023-06-13T21:17:55.821Z,17.31
2023-06-13T21:20:26.230Z,17.91
2023-06-13T21:22:55.210Z,17.85
2023-06-13T21:25:24.746Z,17.48
2023-06-13T21:27:53.160Z,17.68
2023-06-13T21:30:21.276Z,17.84
2023-06-13T21:32:49.574Z,18.24
2023-06-13T21:35:20.278Z,18.20
2023-06-13T21:37:47.843Z,18.57
2023-06-13T21:40:15.832Z,18.96
2023-06-13T21:42:43.846Z,18.66
2023-06-13T21:45:15.028Z,19.39
2023-06-13T21:47:44.980Z,18.38
2023-06-13T21:50:12.746Z,19.59
2023-06-13T21:52:41.352Z,18.49
2023-06-13T21:55:12.540Z,19.38
2023-06-13T21:57:40.151Z,18.66
2023-06-13T22:00:17.450Z,18.57
2023-06-13T22:02:46.901Z,18.51
2023-06-13T22:05:15.930Z,18.48
2023-06-13T22:07:45.456Z,18.65
2023-06-13T22:10:14.462Z,18.61
2023-06-13T22:12:44.089Z,18.77
2023-06-13T22:15:11.862Z,19.05
2023-06-13T22:17:40.166Z,18.96
2023-06-13T22:20:19.705Z,19.57
2023-06-13T22:22:48.879Z,19.26
2023-06-13T22:25:16.498Z,19.52
2023-06-13T22:27:44.017Z,20.37
2023-06-13T22:30:12.899Z,20.31
2023-06-13T22:32:40.969Z,19.41
2023-06-13T22:35:12.079Z,19.58
2023-06-13T22:37:40.069Z,19.66
2023-06-13T22:40:10.961Z,20.11
2023-06-13T22:42:39.014Z,19.96
2023-06-13T22:45:08.137Z,20.02
2023-06-13T22:47:38.307Z,20.00
2023-06-13T22:50:07.836Z,20.37
2023-06-13T22:52:38.278Z,21.11
2023-06-13T22:55:06.525Z,20.80
2023-06-13T22:57:34.084Z,20.58
2023-06-13T23:00:01.693Z,20.70
2023-06-13T23:02:30.297Z,21.32
2023-06-13T23:04:57.844Z,21.28
2023-06-13T23:07:25.333Z,20.99
2023-06-13T23:09:52.832Z,21.05
2023-06-13T23:12:20.498Z,21.30
2023-06-13T23:14:48.231Z,21.03
2023-06-13T23:17:15.965Z,21.10
2023-06-13T23:19:54.652Z,20.60
2023-06-13T23:22:22.739Z,21.40
2023-06-13T23:24:50.478Z,20.50
2023-06-13T23:27:18.933Z,21.69
2023-06-13T23:29:48.457Z,20.95
2023-06-13T23:32:17.523Z,22.58
2023-06-13T23:34:46.733Z,23.30
2023-06-13T23:37:21.760Z,24.64
2023-06-13T23:39:52.568Z,25.69
2023-06-13T23:42:20.452Z,26.83
2023-06-13T23:44:48.369Z,25.69
2023-06-13T23:47:15.996Z,26.17
2023-06-13T23:49:43.683Z,26.67
2023-06-13T23:52:11.249Z,26.30
2023-06-13T23:54:38.942Z,26.17
2023-06-13T23:57:06.719Z,26.49
2023-06-13T23:59:35.145Z,26.34
